Tiempo atmosférico en la estación meteorológica de Alicante/Alacant, Alacant/Alicante (81 m.)



Fecha
DESCASC
Temp. máxima en grados centígrados (hora)
DESCASC
Temp. mínima en grados centígrados (hora)
DESCASC
Temp. media en grados centígrados
DESCASC
Racha de viento máxima en m/sg (hora)
DESCASC
Velocidad máxima media en intervalos de 10 minutos(hora)
DESCASC
Precipitaciones diarias en mm
DESCASC
Precipitaciones de 00:00 a 06:00 en mm
DESCASC
Precipitaciones de 06:00 a 12:00 en mm
DESCASC
Precipitaciones de 12:00 a 18:00 en mm
DESCASC
Precipitaciones de 18:00 a 24:00 en mm
DESCASC
21-08-2019 28 (16:10) 22.2 (00:00) 25.1 10.56 (13:10) 5.56 (11:50) 86.8 79.6 7.2 0 0
31-07-2019 28.4 (16:00) 21.9 (00:00) 25.1 12.5 (16:00) 7.22 (17:30) 0 0 0 0 0
13-08-2019 28.6 (15:30) 23.8 (00:00) 26.2 11.39 (13:20) 6.11 (13:20) 0 0 0 0 0
22-08-2019 29.1 (14:40) 20.2 (00:00) 24.7 6.67 (15:50) 3.61 (16:40) 0 0 0 0 0
23-08-2019 30 (12:30) 19.4 (00:00) 24.7 7.78 (17:00) 4.44 (16:20) 0 0 0 0 0
14-08-2019 30 (15:00) 20.9 (00:00) 25.4 8.06 (15:20) 4.44 (15:20) 0 0 0 0 0
24-08-2019 30 (15:50) 19.6 (00:00) 24.8 6.39 (16:00) 3.61 (14:50) 0 0 0 0 0
30-07-2019 30 (13:00) 21.9 (00:00) 25.9 7.5 (14:40) 4.17 (13:50) 0 0 0 0 0
28-07-2019 30.3 (13:50) 23.5 (00:00) 26.9 10 (15:10) 5.28 (14:30) 0 0 0 0 0
03-08-2019 30.5 (14:00) 22.5 (00:00) 26.5 6.67 (15:10) 3.89 (14:00) 0 0 0 0 0
01-08-2019 30.6 (12:20) 21 (00:00) 25.8 7.22 (12:50) 3.89 (12:50) 0 0 0 0 0
19-08-2019 30.6 (13:00) 21.2 (00:00) 25.9 7.22 (18:40) 4.44 (15:00) 0 0 0 0 0
20-08-2019 30.7 (15:10) 23.3 (00:00) 27 9.72 (18:00) 4.72 (17:50) 0 0 0 0 0
26-07-2019 30.7 (13:50) 21.6 (00:00) 26.2 6.39 (13:40) 3.33 (14:20) 0 0 0 0 0
11-08-2019 30.9 (12:00) 24.8 (00:00) 27.8 7.5 (14:50) 4.17 (13:40) 0.4 0 0.4 0 0
29-07-2019 30.9 (13:00) 21.2 (00:00) 26.1 8.33 (15:00) 4.44 (15:30) 0 0 0 0 0
05-08-2019 31 (13:20) 23.2 (00:00) 27.1 6.39 (14:10) 3.89 (14:10) 0 0 0 0 0
15-08-2019 31.1 (15:00) 21.2 (00:00) 26.2 6.11 (13:40) 3.89 (16:00) 0 0 0 0 0
17-08-2019 31.2 (16:20) 20.8 (00:00) 26 5.83 (12:50) 3.33 (14:50) 0 0 0 0 0
16-08-2019 31.2 (14:00) 20.5 (00:00) 25.9 6.11 (13:50) 3.61 (17:00) 0 0 0 0 0
02-08-2019 31.4 (14:00) 22.3 (00:00) 26.8 8.33 (17:10) 5 (16:30) 0 0 0 0 0
12-08-2019 31.6 (12:50) 24.1 (00:00) 27.9 10 (19:10) 5.83 (19:10) 0 0 0 0 0
06-08-2019 31.8 (17:30) 23.7 (00:00) 27.8 6.94 (15:50) 3.61 (15:40) 0 0 0 0 0
04-08-2019 32 (16:30) 21.9 (00:00) 26.9 5.83 (17:40) 3.33 (12:50) 0 0 0 0 0
18-08-2019 32.4 (14:30) 20.6 (00:00) 26.5 5.56 (15:00) 3.33 (15:00) 0 0 0 0 0
08-08-2019 32.7 (14:40) 24 (00:00) 28.4 6.11 (16:50) 3.89 (16:00) 0 0 0 0 0
07-08-2019 34.6 (11:20) 22.7 (00:00) 28.6 7.5 (14:30) 4.44 (14:40) 0 0 0 0 0
10-08-2019 35 (15:30) 23.8 (00:00) 29.4 6.39 (15:00) 3.61 (13:50) 0 0 0 0 0
09-08-2019 36.5 (16:20) 22.6 (00:00) 29.6 6.11 (15:10) 3.89 (14:00) 0 0 0 0 0
27-07-2019 36.6 (15:30) 23.1 (00:00) 29.8 10.28 (16:20) 5.83 (16:20) 0 0 0 0 0

Gráficas

Temp. máximas Temp. mínimas Temp. medias Precipitaciones Rachas de viento máximas Velocidades máximas media en intervalos de 10 minutos

Datos horarios

Fecha y hora oficial Temperatura (ºC) Velocidad del viento (km/h) Dirección del viento Racha (km/h) Dirección de racha Precipitación (mm) Presión (hPa) Tendencia (hPa) Humedad (%)
2019-08-24 23:00:00 24.7 4 Este 8 Este 0 1008.8 0.8 79
2019-08-24 22:00:00 25 4 Este 8 Este 0 1008.6 0.5 78
2019-08-24 21:00:00 25.4 4 Este 13 Nordeste 0 1008.2 -0.1 75
2019-08-24 20:00:00 26.1 7 Nordeste 18 Sudeste 0 1008 -0.5 74
2019-08-24 19:00:00 27.3 10 Sudeste 20 Sudeste 0 1008.1 -0.6 67
2019-08-24 18:00:00 28.3 9 Sudeste 23 Sur 0 1008.3 -0.8 63
2019-08-24 17:00:00 29 12 Sudeste 23 Sudeste 0 1008.5 -0.8 57
2019-08-24 16:00:00 29.8 12 Sudeste 23 Sur 0 1008.7 -0.9 55
2019-08-24 15:00:00 29.3 10 Sudeste 22 Sudeste 0 1009.1 -0.6 58
2019-08-24 14:00:00 28.7 9 Sudeste 21 Sudeste 0 1009.3 -0.4 60
2019-08-24 13:00:00 28.7 10 Sudeste 21 Sudeste 0 1009.6 0.2 52
2019-08-24 12:00:00 29 6 Sudeste 17 Nordeste 0 1009.7 0.4 50
2019-08-24 11:00:00 27.9 3 Nordeste 12 Nordeste 0 1009.7 0.5 52
2019-08-24 10:00:00 26.1 4 Noroeste 9 Noroeste 0 1009.4 0.3 57
2019-08-24 09:00:00 22.1 4 Noroeste 7 Norte 0 1009.3 0.4 72
2019-08-24 08:00:00 19.9 3 Norte 11 Noroeste 0 1009.2 0.3 78
2019-08-24 07:00:00 19.6 5 Noroeste 10 Noroeste 0 1009.1 0.1 75
2019-08-24 06:00:00 19.8 4 Oeste 8 Noroeste 0 1008.9 -0.4 76
2019-08-24 05:00:00 20.2 4 Noroeste 9 Norte 0 1008.9 -0.5 77
2019-08-24 04:00:00 20.8 6 Norte 10 Norte 0 1009 -0.2 72
2019-08-24 03:00:00 21.4 3 Norte 6 Noroeste 0 1009.3 -0.1 79
2019-08-24 02:00:00 21.8 0 Calma 5 Noroeste 0 1009.4 0 80
2019-08-24 01:00:00 22.6 2 Oeste 5 Noroeste 0 1009.2 0.1 81
2019-08-24 00:00:00 23.5 2 Noroeste 6 Norte 0 1009.4 0.7 79
2019-08-23 23:00:00 24.1 3 Norte 6 Norte 0 1009.4 0.8 77
2019-08-23 22:00:00 24.6 3 Nordeste 10 Este 0 1009.1 0.3 74
2019-08-23 21:00:00 25.1 6 Este 15 Nordeste 0 1008.7 -0.1 73
2019-08-23 20:00:00 26 8 Este 19 Nordeste 0 1008.6 -0.5 67
2019-08-23 19:00:00 27.1 9 Este 21 Este 0 1008.8 -0.7 63
2019-08-23 18:00:00 27.7 10 Este 24 Nordeste 0 1008.8 -1.3 62
2019-08-23 17:00:00 28.1 14 Este 28 Nordeste 0 1009.1 -1.2 62
2019-08-23 16:00:00 28.1 13 Este 28 Este 0 1009.5 -1.3 60
2019-08-23 15:00:00 28.8 13 Este 23 Este 0 1010.1 -0.8 54
2019-08-23 14:00:00 29.4 9 Sudeste 26 Este 0 1010.3 -0.6 43
2019-08-23 13:00:00 29.5 10 Este 21 Nordeste 0 1010.8 0.2 36
2019-08-23 12:00:00 29.5 6 Este 19 Nordeste 0 1010.9 0.5 38
2019-08-23 11:00:00 28.1 6 Sudoeste 11 Sudoeste 0 1010.9 0.7 50
2019-08-23 10:00:00 25.9 4 Oeste 12 Oeste 0 1010.6 0.8 60
2019-08-23 09:00:00 22.2 4 Noroeste 10 Oeste 0 1010.4 0.7 69
2019-08-23 08:00:00 19.5 3 Oeste 7 Norte 0 1010.2 0.3 80
2019-08-23 07:00:00 19.8 4 Norte 8 Norte 0 1009.8 -0.3 79
2019-08-23 06:00:00 20.1 5 Norte 8 Nordeste 0 1009.7 -0.8 81
2019-08-23 05:00:00 20.6 4 Noroeste 8 Norte 0 1009.9 -0.8 83
2019-08-23 04:00:00 21.2 4 Norte 7 Nordeste 0 1010.1 -0.6 81
2019-08-23 03:00:00 21.8 4 Norte 9 Norte 0 1010.5 -0.3 83
2019-08-23 02:00:00 22.2 5 Norte 6 Norte 0 1010.7 0 86
2019-08-23 01:00:00 22.9 3 Norte 5 Norte 0 1010.7 0.4 85
2019-08-23 00:00:00 23.5 3 Norte 6 Norte 0 1010.8 0.9 82
2019-08-22 23:00:00 24.2 3 Norte 9 Nordeste 0 1010.7 1 80
2019-08-22 22:00:00 24.5 5 Este 13 Este 0 1010.3 0.6 78
2019-08-22 21:00:00 24.9 8 Este 19 Nordeste 0 1009.9 0 75
2019-08-22 20:00:00 25.7 8 Este 21 Este 0 1009.7 -0.4 72
2019-08-22 19:00:00 26.7 12 Este 21 Este 0 1009.7 -0.5 65
2019-08-22 18:00:00 27.3 13 Este 21 Nordeste 0 1009.9 -0.4 62
2019-08-22 17:00:00 28.3 10 Este 23 Sudeste 0 1010.1 -0.4 56
2019-08-22 16:00:00 28.7 12 Sudeste 24 Sudeste 0 1010.2 -0.7 54
2019-08-22 15:00:00 28.7 11 Este 23 Sudeste 0 1010.3 -0.7 48
2019-08-22 14:00:00 28.6 10 Sudeste 23 Sur 0 1010.5 -0.1 53
2019-08-22 13:00:00 28 10 Este 23 Nordeste 0 1010.9 0.6 54
2019-08-22 12:00:00 27.9 10 Sudeste 21 Sudeste 0 1011 0.7 57
2019-08-22 11:00:00 27.7 8 Sudeste 16 Este 0 1010.6 0.9 54
2019-08-22 10:00:00 26.6 4 Este 6 Noroeste 0 1010.3 0.8 59
2019-08-22 09:00:00 23.2 5 Norte 9 Norte 0 1010.3 0.9 66
2019-08-22 08:00:00 20.7 5 Norte 10 Norte 0 1009.7 0.4 76
2019-08-22 07:00:00 20.3 4 Norte 9 Norte 0 1009.5 0.2 79
2019-08-22 06:00:00 20.7 5 Norte 7 Norte 0 1009.4 0.1 80
2019-08-22 05:00:00 21 2 Noroeste 5 Noroeste 0 1009.3 -0.2 79
2019-08-22 04:00:00 21.6 3 Oeste 9 Noroeste 0 1009.3 -0.6 77
2019-08-22 03:00:00 22.1 6 Noroeste 11 Noroeste 0 1009.3 -0.3 77
2019-08-22 02:00:00 22.4 3 Oeste 8 Noroeste 0 1009.5 -0.2 79
2019-08-22 01:00:00 22.9 3 Noroeste 9 Norte 0 1009.9 0.7 71
2019-08-22 00:00:00 23.8 4 Norte 9 Norte 0 1009.6 0.7 65
2019-08-21 23:00:00 24.6 4 Noroeste 14 Nordeste 0 1009.7 1 70
2019-08-21 22:00:00 25.3 7 Este 16 Nordeste 0 1009.2 1 61
2019-08-21 21:00:00 25.1 9 Este 19 Este 0 1008.9 0.4 68
2019-08-21 20:00:00 25.4 8 Este 30 Este 0 1008.7 0.1 66
2019-08-21 19:00:00 26.5 15 Este 27 Nordeste 0 1008.2 -0.6 60
2019-08-21 18:00:00 26.9 12 Este 32 Nordeste 0 1008.5 -1.2 61
2019-08-21 17:00:00 27.7 14 Este 30 Nordeste 0 1008.6 -1.3 55
2019-08-21 16:00:00 27.6 15 Este 31 Este 0 1008.8 -1.4 55
2019-08-21 15:00:00 27.3 15 Este 33 Nordeste 0 1009.7 -0.9 55
2019-08-21 14:00:00 27.5 15 Este 38 Nordeste 0 1009.9 -0.4 60
2019-08-21 13:00:00 27 14 Este 33 Este 0 1010.2 0 62
2019-08-21 12:00:00 26.4 16 Nordeste 33 Este 0 1010.6 0.5 66
2019-08-21 11:00:00 25.7 14 Nordeste 33 Este 0 1010.3 0.4 68
2019-08-21 10:00:00 23.7 13 Nordeste 26 Nordeste 0 1010.2 0.5 77
2019-08-21 09:00:00 22.4 11 Nordeste 27 Este 0 1010.1 0.7 89
2019-08-21 08:00:00 22.4 6 Este 19 Este 5.4 1009.9 0.4 95
2019-08-21 07:00:00 22.4 7 Nordeste 23 Nordeste 1.8 1009.7 0.1 95
2019-08-21 06:00:00 22.5 11 Nordeste 32 Nordeste 12.6 1009.4 -0.1 96
2019-08-21 05:00:00 22.4 11 Nordeste 32 Nordeste 37.4 1009.5 0.1 97
2019-08-21 04:00:00 22.5 6 Este 23 Este 25.4 1009.6 0.3 95
2019-08-21 03:00:00 23.6 13 Este 30 Este 3.8 1009.5 0.1 92
2019-08-21 02:00:00 24.7 14 Nordeste 26 Nordeste 0.4 1009.4 0.3 89
2019-08-21 01:00:00 24.9 4 Nordeste 13 Norte 0 1009.3 1 75
2019-08-21 00:00:00 25.4 6 Norte 21 Norte 0 1009.4 1.2 72
2019-08-20 23:00:00 25.9 10 Nordeste 26 Este 0 1009.1 1.4 75
2019-08-20 22:00:00 25.6 11 Nordeste 17 Nordeste 0 1008.3 1.1 68
2019-08-20 21:00:00 26.3 10 Norte 25 Norte 0 1008.2 1.5 66
2019-08-20 20:00:00 27.2 8 Este 17 Este 0 1007.7 1 68
2019-08-20 19:00:00 27.6 7 Nordeste 32 Este 0 1007.2 0.6 64
2019-08-20 18:00:00 28.6 17 Este 35 Este 0 1006.7 0.1 62
2019-08-20 17:00:00 28.4 12 Este 32 Este 0 1006.7 0.1 69
2019-08-20 16:00:00 29.2 13 Este 26 Este 0 1006.6 -0.2 62
2019-08-20 15:00:00 30.3 10 Sudeste 26 Sudeste 0 1006.6 0 59
2019-08-20 14:00:00 30.4 11 Sudeste 24 Sudeste 0 1006.6 0.4 62
2019-08-20 13:00:00 30.1 11 Sudeste 21 Sudeste 0 1006.8 1 60
2019-08-20 12:00:00 28.8 8 Sudeste 19 Este 0 1006.6 1.3 66
2019-08-20 11:00:00 27.3 8 Sudeste 19 Este 0 1006.2 1.4 70
2019-08-20 10:00:00 28.7 5 Sudeste 12 Sudeste 0 1005.8 1.3 59
2019-08-20 09:00:00 26 3 Norte 8 Noroeste 0 1005.3 0.7 68
2019-08-20 08:00:00 23.5 3 Noroeste 8 Nordeste 0 1004.8 0.3 79
2019-08-20 07:00:00 23.9 3 Norte 8 Norte 0 1004.5 -0.2 80
2019-08-20 06:00:00 24.4 5 Norte 6 Norte 0 1004.6 -0.2 87
2019-08-20 05:00:00 24.7 0 Calma 4 Noroeste 0 1004.5 -0.5 85
2019-08-20 04:00:00 25.5 3 Sudeste 10 Nordeste 0 1004.7 -0.6 82
2019-08-20 03:00:00 26 4 Sudeste 9 Nordeste 0 1004.8 -0.7 80
2019-08-20 02:00:00 26.1 6 Este 13 Sudeste 0 1005 -0.4 83
2019-08-20 01:00:00 26 5 Sudeste 10 Sudeste 0 1005.3 0.1 84
2019-08-20 00:00:00 26 5 Sudeste 13 Este 0 1005.5 0.8 84
2019-08-19 23:00:00 26.1 8 Este 19 Este 0 1005.4 1 82
2019-08-19 22:00:00 26.5 9 Este 19 Este 0 1005.2 1 80
2019-08-19 21:00:00 26.7 11 Nordeste 22 Este 0 1004.7 0.3 80
2019-08-19 20:00:00 27.1 10 Este 25 Este 0 1004.4 -0.1 78
2019-08-19 19:00:00 27.7 14 Este 26 Este 0 1004.2 -0.6 76
2019-08-19 18:00:00 28.6 10 Este 23 Sudeste 0 1004.4 -0.8 73
2019-08-19 17:00:00 28.6 11 Sudeste 25 Sudeste 0 1004.5 -0.8 73
2019-08-19 16:00:00 28.9 13 Sudeste 25 Sudeste 0 1004.8 -0.5 72
2019-08-19 15:00:00 29.2 16 Sudeste 25 Sudeste 0 1005.2 0.1 70
2019-08-19 14:00:00 29.3 12 Sudeste 23 Este 0 1005.3 0.5 70
2019-08-19 13:00:00 30.6 12 Sudeste 23 Sudeste 0 1005.3 1.1 65
2019-08-19 12:00:00 29.6 11 Sudeste 21 Este 0 1005.1 1.6 68
2019-08-19 11:00:00 28.6 10 Este 25 Nordeste 0 1004.8 1.7 71
2019-08-19 10:00:00 27.5 11 Este 22 Nordeste 0 1004.2 1.8 78
2019-08-19 09:00:00 25.5 6 Nordeste 12 Nordeste 0 1003.5 1.2 67
2019-08-19 08:00:00 22.8 9 Nordeste 12 Nordeste 0 1003.1 0.7 47
2019-08-19 07:00:00 21.4 3 Noroeste 6 Noroeste 0 1002.4 -0.1 65
2019-08-19 06:00:00 21.9 4 Oeste 6 Noroeste 0 1002.3 -0.8 57
2019-08-19 05:00:00 22.4 3 Noroeste 5 Oeste 0 1002.4 -0.8 65
2019-08-19 04:00:00 23.1 4 Norte 5 Noroeste 0 1002.5 -0.8 75
2019-08-19 03:00:00 23.3 3 Oeste 4 Oeste 0 1003.1 -0.1 75
2019-08-19 02:00:00 23.9 3 Noroeste 8 Noroeste 0 1003.2 0 61
2019-08-19 01:00:00 25.2 2 Noroeste 7 Oeste 0 1003.3 1 77
2019-08-19 00:00:00 26 3 Oeste 5 Sudoeste 0 1003.2 1.5 85
2019-08-18 23:00:00 26.6 3 Sudoeste 9 Sudoeste 0 1003.2 1.4 84
2019-08-18 22:00:00 27.3 6 Sur 9 Sur 0 1002.3 0.4 75
2019-08-18 21:00:00 28.2 4 Sur 9 Sudeste 0 1001.7 -0.4 65
2019-08-18 20:00:00 29.5 4 Sudeste 10 Sur 0 1001.8 -0.6 60
2019-08-18 19:00:00 30.1 4 Sudeste 14 Sudeste 0 1001.9 -0.9 62
2019-08-18 18:00:00 30.2 9 Sudeste 17 Sudeste 0 1002.1 -0.9 65
2019-08-18 17:00:00 30.8 9 Sudeste 17 Sur 0 1002.4 -0.8 64
2019-08-18 16:00:00 31 10 Sudeste 19 Este 0 1002.8 -1 65
2019-08-18 15:00:00 31.7 12 Sudeste 20 Sudeste 0 1003 -0.8 61
2019-08-18 14:00:00 31.7 9 Sudeste 19 Sur 0 1003.2 -0.4 58
2019-08-18 13:00:00 29.9 10 Sudeste 17 Sudeste 0 1003.8 0.4 68
2019-08-18 12:00:00 30.8 5 Este 15 Nordeste 0 1003.8 0.6 60
2019-08-18 11:00:00 29.1 6 Nordeste 13 Nordeste 0 1003.6 0.9 66
2019-08-18 10:00:00 27.8 6 Este 14 Nordeste 0 1003.4 0.9 69
2019-08-18 09:00:00 24.9 4 Nordeste 5 Nordeste 0 1003.2 0.8 71
2019-08-18 08:00:00 21 4 Norte 5 Norte 0 1002.7 -0.4 69
2019-08-18 07:00:00 20.8 0 Calma 4 Noroeste 0 1002.5 -1 75
2019-08-18 06:00:00 21.6 3 Noroeste 5 Noroeste 0 1002.4 -1.4 81
2019-08-18 05:00:00 22.1 3 Noroeste 6 Noroeste 0 1003.1 -1 80
2019-08-18 04:00:00 22.6 3 Norte 4 Norte 0 1003.5 -0.8 82
2019-08-18 03:00:00 23.3 2 Noroeste 5 Norte 0 1003.8 -0.6 79
2019-08-18 02:00:00 24.4 0 Calma 8 Norte 0 1004.1 -0.1 84
2019-08-18 01:00:00 25 3 Noroeste 7 Norte 0 1004.3 0.5 86
2019-08-18 00:00:00 25.5 2 Noroeste 10 Sudeste 0 1004.4 1 87
2019-08-17 23:00:00 26 4 Sudeste 7 Sudeste 0 1004.2 0.8 84
2019-08-17 22:00:00 26.5 4 Sudeste 7 Este 0 1003.8 -0.1 80
2019-08-17 21:00:00 27.2 3 Este 10 Este 0 1003.4 -1 75
2019-08-17 20:00:00 28.4 5 Sudeste 11 Sur 0 1003.4 -1.3 71
2019-08-17 19:00:00 30 7 Sudeste 13 Sudeste 0 1003.9 -1.4 63
2019-08-17 18:00:00 30.8 9 Sudeste 17 Este 0 1004.4 -1.7 57
2019-08-17 17:00:00 30.4 9 Sudeste 18 Sudeste 0 1004.7 -1.7 61
2019-08-17 16:00:00 30.6 9 Sudeste 21 Sur 0 1005.3 -1.4 61
2019-08-17 15:00:00 30.1 9 Sudeste 21 Sudeste 0 1006.1 -0.9 60
2019-08-17 14:00:00 30.1 10 Sudeste 17 Este 0 1006.4 -0.5 57
2019-08-17 13:00:00 29.7 10 Sudeste 21 Sudeste 0 1006.7 -0.2 55
2019-08-17 12:00:00 30.9 8 Sur 13 Sur 0 1007 0.4 48
2019-08-17 11:00:00 29.8 5 Sudeste 11 Sudeste 0 1006.9 0.6 44
2019-08-17 10:00:00 28 5 Sur 7 Sur 0 1006.9 0.9 42
2019-08-17 09:00:00 24.3 0 Calma 4 Oeste 0 1006.6 0.8 43
2019-08-17 08:00:00 21.1 3 Noroeste 8 Noroeste 0 1006.3 0.1 57
2019-08-17 07:00:00 20.8 4 Noroeste 6 Oeste 0 1006 -0.5 61
2019-08-17 06:00:00 21.3 4 Noroeste 7 Noroeste 0 1005.8 -1 66
2019-08-17 05:00:00 21.7 3 Noroeste 6 Noroeste 0 1006.2 -0.9 68
2019-08-17 04:00:00 22.3 4 Noroeste 5 Norte 0 1006.5 -0.9 78
2019-08-17 03:00:00 22.8 3 Noroeste 6 Oeste 0 1006.8 -0.7 75
2019-08-17 02:00:00 23.5 4 Oeste 6 Oeste 0 1007.1 -0.5 76
2019-08-17 01:00:00 24.3 3 Oeste 5 Oeste 0 1007.4 0 80
2019-08-17 00:00:00 24.7 3 Oeste 6 Oeste 0 1007.5 0.6 80
2019-08-16 23:00:00 25.1 3 Norte 4 Sudoeste 0 1007.6 1 76
2019-08-16 22:00:00 25.7 2 Sur 7 Sudeste 0 1007.4 0.9 71
2019-08-16 21:00:00 26.4 4 Sudeste 12 Sudeste 0 1006.9 0 71
2019-08-16 20:00:00 27.3 7 Sudeste 15 Sudeste 0 1006.6 -0.8 69
2019-08-16 19:00:00 29 9 Sudeste 18 Sur 0 1006.5 -1.3 65
2019-08-16 18:00:00 29.6 9 Sudeste 19 Este 0 1006.9 -1.4 59
2019-08-16 17:00:00 29.6 13 Sudeste 21 Sur 0 1007.4 -1.2 55
2019-08-16 16:00:00 30.5 10 Sudeste 20 Sudeste 0 1007.8 -1.3 45
2019-08-16 15:00:00 29.9 11 Sudeste 21 Sudeste 0 1008.3 -1.1 53
2019-08-16 14:00:00 30.8 10 Sudeste 22 Sur 0 1008.6 -0.8 52
2019-08-16 13:00:00 30.7 11 Sudeste 19 Sudeste 0 1009.1 -0.1 53
2019-08-16 12:00:00 29.8 6 Este 14 Este 0 1009.4 0.3 51
2019-08-16 11:00:00 29 6 Sudeste 14 Sudeste 0 1009.4 0.5 56
2019-08-16 10:00:00 27.6 4 Nordeste 10 Nordeste 0 1009.2 0.9 51
2019-08-16 09:00:00 24.1 3 Nordeste 5 Norte 0 1009.1 0.9 46
2019-08-16 08:00:00 20.9 5 Norte 9 Norte 0 1008.9 0.8 56
2019-08-16 07:00:00 20.6 5 Norte 7 Noroeste 0 1008.3 0.2 57
2019-08-16 06:00:00 21.2 4 Norte 7 Norte 0 1008.2 0.1 55
2019-08-16 05:00:00 21.8 4 Norte 8 Nordeste 0 1008.1 -0.5 58
2019-08-16 04:00:00 22.5 6 Norte 12 Nordeste 0 1008.1 -0.6 59
2019-08-16 03:00:00 22.9 7 Nordeste 11 Nordeste 0 1008.1 -0.6 65
2019-08-16 02:00:00 23.3 4 Norte 10 Nordeste 0 1008.6 0 65
2019-08-16 01:00:00 24 5 Nordeste 8 Norte 0 1008.7 0.5 76
2019-08-16 00:00:00 24.4 3 Norte 6 Noroeste 0 1008.7 0.9 70
2019-08-15 23:00:00 25.1 2 Sur 6 Sudeste 0 1008.6 0.9 62
2019-08-15 22:00:00 25.9 5 Sur 8 Sur 0 1008.2 0.5 71
2019-08-15 21:00:00 26.6 4 Sudeste 9 Sudeste 0 1007.8 0.1 68
2019-08-15 20:00:00 27.3 3 Sudeste 16 Sur 0 1007.7 -0.2 64
2019-08-15 19:00:00 28.9 8 Sudeste 19 Este 0 1007.7 -0.6 57
2019-08-15 18:00:00 29.2 9 Sudeste 19 Sudeste 0 1007.7 -0.8 57
2019-08-15 17:00:00 29.8 9 Sudeste 21 Sudeste 0 1007.9 -0.7 58
2019-08-15 16:00:00 30.3 14 Sudeste 21 Sudeste 0 1008.3 -0.7 54
2019-08-15 15:00:00 31 11 Sudeste 21 Sudeste 0 1008.5 -0.7 42
2019-08-15 14:00:00 30.6 12 Sudeste 22 Sudeste 0 1008.6 -0.6 42
2019-08-15 13:00:00 29.8 12 Sudeste 19 Sudeste 0 1009 -0.2 52
2019-08-15 12:00:00 29.6 8 Sudeste 16 Sudeste 0 1009.2 0.1 54
2019-08-15 11:00:00 29 8 Sudeste 13 Sudeste 0 1009.2 0.3 58
2019-08-15 10:00:00 27.2 3 Oeste 9 Noroeste 0 1009.2 0.8 61
2019-08-15 09:00:00 24.3 5 Noroeste 9 Noroeste 0 1009.1 1 76
2019-08-15 08:00:00 21.6 3 Oeste 5 Oeste 0 1008.9 0.8 84
2019-08-15 07:00:00 21.6 2 Oeste 6 Noroeste 0 1008.4 0.3 83
2019-08-15 06:00:00 22.1 3 Noroeste 6 Noroeste 0 1008.1 -0.2 81
2019-08-15 05:00:00 22.4 3 Noroeste 6 Noroeste 0 1008.1 -0.6 81
2019-08-15 04:00:00 22.7 0 Calma 5 Noroeste 0 1008.1 -0.8 81
2019-08-15 03:00:00 23.2 3 Oeste 7 Noroeste 0 1008.3 -0.5 80
2019-08-15 02:00:00 23.9 3 Oeste 6 Oeste 0 1008.7 0 82
2019-08-15 01:00:00 24.3 3 Oeste 7 Sudoeste 0 1008.9 0.5 81
2019-08-15 00:00:00 24.8 5 Sudoeste 12 Sudoeste 0 1008.8 0.7 78
2019-08-14 23:00:00 25.2 6 Sudoeste 9 Sudoeste 0 1008.7 0.7 77
2019-08-14 22:00:00 25.4 6 Sudoeste 14 Sudeste 0 1008.4 0.6 76
2019-08-14 21:00:00 26 5 Sudeste 14 Sudeste 0 1008.1 0 73
2019-08-14 20:00:00 26.6 8 Sudeste 18 Sudeste 0 1008 -0.2 70
2019-08-14 19:00:00 28.3 8 Sudeste 21 Este 0 1007.8 -0.7 63
2019-08-14 18:00:00 29.3 10 Sur 24 Sudeste 0 1008.1 -0.9 59
2019-08-14 17:00:00 29.1 15 Sur 27 Sudeste 0 1008.2 -1.4 60
2019-08-14 16:00:00 29.5 11 Sur 29 Sur 0 1008.5 -1.4 60
2019-08-14 15:00:00 29.9 13 Sudeste 24 Sur 0 1009 -1.4 55
2019-08-14 14:00:00 29.3 12 Sudeste 23 Sudeste 0 1009.6 -0.8 55
2019-08-14 13:00:00 28.9 11 Sudeste 22 Sudeste 0 1009.9 -0.3 58
2019-08-14 12:00:00 28.7 11 Sudeste 21 Sudeste 0 1010.4 0.3 59
2019-08-14 11:00:00 28.4 7 Sur 15 Sudeste 0 1010.4 0.4 56
2019-08-14 10:00:00 26.5 5 Sur 10 Noroeste 0 1010.2 0.6 62
2019-08-14 09:00:00 23.6 4 Noroeste 11 Noroeste 0 1010.1 0.6 67
2019-08-14 08:00:00 21.3 2 Noroeste 5 Noroeste 0 1010 0.6 79
2019-08-14 07:00:00 21.2 3 Noroeste 7 Noroeste 0 1009.6 0 77
2019-08-14 06:00:00 21.5 3 Noroeste 7 Noroeste 0 1009.5 -0.2 77
2019-08-14 05:00:00 22.1 4 Norte 7 Norte 0 1009.4 -0.6 77
2019-08-14 04:00:00 22.6 2 Noroeste 5 Norte 0 1009.6 -0.4 75
2019-08-14 03:00:00 23.3 4 Norte 6 Norte 0 1009.7 -0.1 73
2019-08-14 02:00:00 23.9 4 Norte 6 Norte 0 1010 0.2 73
2019-08-14 01:00:00 24.3 3 Nordeste 7 Nordeste 0 1010 0.8 72
2019-08-14 00:00:00 24.4 4 Este 8 Este 0 1009.8 1.1 72
2019-08-13 23:00:00 24.6 4 Sudeste 12 Sudeste 0 1009.8 1.7 71
2019-08-13 22:00:00 24.8 5 Este 13 Sudeste 0 1009.2 1.2 69
2019-08-13 21:00:00 25.2 8 Sudeste 19 Sudeste 0 1008.7 0.7 67
2019-08-13 20:00:00 25.9 9 Este 25 Sudeste 0 1008.1 -0.1 63
2019-08-13 19:00:00 26.9 12 Este 27 Este 0 1008 -0.5 60
2019-08-13 18:00:00 27.3 8 Este 30 Este 0 1008 -0.8 59
2019-08-13 17:00:00 28.1 11 Este 33 Nordeste 0 1008.2 -0.7 56
2019-08-13 16:00:00 28.5 15 Este 34 Nordeste 0 1008.5 -0.7 51
2019-08-13 15:00:00 27.9 17 Sudeste 35 Este 0 1008.8 -0.2 55
2019-08-13 14:00:00 28 18 Este 41 Nordeste 0 1008.9 0.1 54
2019-08-13 13:00:00 27.9 15 Este 38 Este 0 1009.2 0.6 55
2019-08-13 12:00:00 27.1 17 Este 37 Este 0 1009 0.8 56
2019-08-13 11:00:00 26.7 17 Este 36 Este 0 1008.8 1 62
2019-08-13 10:00:00 26.7 17 Nordeste 32 Nordeste 0 1008.6 1.3 61
2019-08-13 09:00:00 25.7 17 Nordeste 35 Nordeste 0 1008.2 1 61
2019-08-13 08:00:00 24.8 10 Nordeste 24 Este 0 1007.8 0.9 60
2019-08-13 07:00:00 24.7 13 Nordeste 27 Nordeste 0 1007.3 0.4 61
2019-08-13 06:00:00 24.5 6 Norte 15 Nordeste 0 1007.2 -0.5 61
2019-08-13 05:00:00 24.2 6 Norte 13 Norte 0 1006.9 -1.1 59
2019-08-13 04:00:00 23.8 6 Norte 10 Nordeste 0 1006.9 -1 60
2019-08-13 03:00:00 24.3 4 Nordeste 10 Nordeste 0 1007.7 0.2 66
2019-08-13 02:00:00 25 5 Norte 12 Nordeste 0 1008 1.2 65
2019-08-13 01:00:00 25.6 5 Norte 24 Este 0 1007.9 2.2 68
2019-08-13 00:00:00 26 11 Este 30 Nordeste 0 1007.5 2.6 68
2019-08-12 23:00:00 26.4 12 Nordeste 25 Este 0 1006.8 2.8 67
2019-08-12 22:00:00 26.2 13 Este 27 Este 0 1005.7 2 74
2019-08-12 21:00:00 26.5 12 Este 30 Este 0 1004.9 0.9 74
2019-08-12 20:00:00 27.5 16 Nordeste 36 Este 0 1004 -0.1 67
2019-08-12 19:00:00 27.6 17 Este 33 Este 0 1003.7 -0.6 66
2019-08-12 18:00:00 28.3 17 Este 32 Este 0 1004 -0.7 61
2019-08-12 17:00:00 30.3 16 Este 33 Este 0 1004.1 -0.8 52
2019-08-12 16:00:00 31 17 Este 31 Nordeste 0 1004.3 -0.7 48
2019-08-12 15:00:00 30.6 15 Este 30 Este 0 1004.7 0 49
2019-08-12 14:00:00 30.9 12 Sudeste 30 Sudeste 0 1004.9 0.6 49
2019-08-12 13:00:00 30.7 14 Sudeste 25 Sudeste 0 1005 1.1 60
2019-08-12 12:00:00 30.9 11 Sudeste 22 Sudeste 0 1004.7 1.3 52
2019-08-12 11:00:00 30.7 10 Sudeste 17 Sudeste 0 1004.3 1.3 49
2019-08-12 10:00:00 28.6 7 Sur 14 Sur 0 1003.9 1.7 55
2019-08-12 09:00:00 26.4 4 Sudoeste 10 Este 0 1003.4 1.7 57
2019-08-12 08:00:00 25.3 3 Nordeste 11 Nordeste 0 1003 1.8 91
2019-08-12 07:00:00 25.2 6 Nordeste 12 Este 0 1002.2 0.9 90
2019-08-12 06:00:00 25.2 8 Nordeste 21 Nordeste 0 1001.7 -0.1 87
2019-08-12 05:00:00 24.3 2 Nordeste 5 Sur 0 1001.2 -1.5 73
2019-08-12 04:00:00 25.4 3 Sudeste 7 Sudoeste 0 1001.3 -2.4 82
2019-08-12 03:00:00 26 4 Oeste 11 Oeste 0 1001.8 -2.3 83
2019-08-12 02:00:00 26.4 3 Oeste 8 Oeste 0 1002.7 -1.6 82
2019-08-12 01:00:00 26.7 4 Oeste 9 Oeste 0 1003.7 0.3 81
2019-08-12 00:00:00 26.6 5 Sudoeste 13 Sudeste 0 1004.1 1.5 82
2019-08-11 23:00:00 26.8 4 Sur 12 Sudeste 0 1004.3 2.2 82
2019-08-11 22:00:00 26.7 7 Sudeste 14 Sudeste 0 1003.4 1.6 83
2019-08-11 21:00:00 27.5 5 Sudeste 10 Sudeste 0 1002.6 0.1 78
2019-08-11 20:00:00 28.3 6 Sudeste 13 Sudeste 0 1002.1 -1 75
2019-08-11 19:00:00 29.3 7 Sudeste 14 Sudeste 0 1001.8 -1.7 71
2019-08-11 18:00:00 29.6 8 Sudeste 18 Sudeste 0 1002.5 -1.5 70
2019-08-11 17:00:00 29.6 9 Sudeste 22 Este 0 1003.1 -1.1 70
2019-08-11 16:00:00 29.8 11 Sudeste 23 Sudeste 0 1003.5 -1 71
2019-08-11 15:00:00 30 13 Sudeste 27 Sudeste 0 1004 -0.6 70
2019-08-11 14:00:00 30.3 14 Sudeste 26 Sudeste 0 1004.2 0 68
2019-08-11 13:00:00 30.4 12 Sudeste 23 Sudeste 0 1004.5 -0.3 69
2019-08-11 12:00:00 30.8 10 Sur 19 Sudeste 0 1004.6 -0.1 67
2019-08-11 11:00:00 29.4 3 Sudoeste 8 Noroeste 0 1004.2 -0.2 72
2019-08-11 10:00:00 27.4 4 Oeste 10 Oeste 0 1004.8 0.5 80
2019-08-11 09:00:00 25.6 4 Noroeste 8 Noroeste 0.4 1004.7 1.2 86
2019-08-11 08:00:00 24.9 3 Oeste 13 Nordeste 0 1004.4 1.3 86
2019-08-11 07:00:00 25.2 5 Oeste 9 Sudoeste 0 1004.3 0.4 77
2019-08-11 06:00:00 25.3 2 Este 7 Nordeste 0 1003.5 -1.4 87
2019-08-11 05:00:00 24.9 5 Norte 10 Nordeste 0 1003.1 -2.1 75
2019-08-11 04:00:00 25.2 7 Nordeste 10 Nordeste 0 1003.9 -1.3 81
2019-08-11 03:00:00 26.1 4 Norte 6 Norte 0 1004.9 -0.5 85
2019-08-11 02:00:00 26.5 3 Norte 7 Nordeste 0 1005.2 -0.3 84
2019-08-11 01:00:00 26.8 4 Norte 7 Nordeste 0 1005.2 0.1 82
2019-08-11 00:00:00 27.2 4 Sudeste 8 Nordeste 0 1005.4 0.6 80
2019-08-10 23:00:00 27.6 4 Este 9 Este 0 1005.5 0.6 74
2019-08-10 22:00:00 27.9 4 Nordeste 9 Norte 0 1005.1 0.2 73
2019-08-10 21:00:00 28.5 5 Nordeste 13 Nordeste 0 1004.8 -0.3 74
2019-08-10 20:00:00 29.7 5 Sudeste 17 Sudeste 0 1004.9 -0.4 71
2019-08-10 19:00:00 31.3 9 Sudeste 21 Este 0 1004.9 -0.7 66
2019-08-10 18:00:00 32.4 9 Este 21 Sudeste 0 1005.1 -0.7 56
2019-08-10 17:00:00 33.5 11 Este 21 Sudeste 0 1005.3 -0.8 46
2019-08-10 16:00:00 34.3 10 Sudeste 22 Sudeste 0 1005.6 -0.7 44
2019-08-10 15:00:00 34.1 10 Sudeste 23 Sudeste 0 1005.8 -0.8 45
2019-08-10 14:00:00 33.4 11 Sudeste 22 Sudeste 0 1006.1 0.1 51
2019-08-10 13:00:00 33.2 12 Este 19 Sudeste 0 1006.3 0.3 49
2019-08-10 12:00:00 33.2 9 Este 18 Este 0 1006.6 1.2 44
2019-08-10 11:00:00 32.2 6 Este 15 Nordeste 0 1006 1.3 49
2019-08-10 10:00:00 29.5 9 Este 17 Este 0 1006 2 70
2019-08-10 09:00:00 28.4 6 Sudeste 8 Sudeste 0 1005.4 1.8 46
2019-08-10 08:00:00 24.2 3 Norte 6 Norte 0 1004.7 1.2 57
2019-08-10 07:00:00 23.8 4 Noroeste 5 Noroeste 0 1004 0.3 55
2019-08-10 06:00:00 23.8 2 Oeste 5 Oeste 0 1003.6 -0.1 59
2019-08-10 05:00:00 24 2 Noroeste 6 Noroeste 0 1003.5 -0.3 68
2019-08-10 04:00:00 24.5 3 Oeste 6 Oeste 0 1003.7 -0.2 68
2019-08-10 03:00:00 25.1 0 Calma 6 Norte 0 1003.7 -0.2 76
2019-08-10 02:00:00 25.8 3 Noroeste 6 Noroeste 0 1003.8 0.1 81
2019-08-10 01:00:00 26.4 3 Sudeste 6 Sudeste 0 1003.9 0.9 79
2019-08-10 00:00:00 26.8 2 Oeste 7 Sur 0 1003.9 1.4 79
2019-08-09 23:00:00 27.6 3 Sur 8 Sur 0 1003.7 1.7 75
2019-08-09 22:00:00 28.4 5 Sur 11 Sudeste 0 1003 0.7 68
2019-08-09 21:00:00 30.5 7 Sudeste 10 Sudeste 0 1002.5 0.3 49
2019-08-09 20:00:00 32.6 6 Sudeste 14 Sudeste 0 1002 -0.5 32
2019-08-09 19:00:00 34.2 7 Sudeste 17 Sudeste 0 1002.3 -0.5 35
2019-08-09 18:00:00 36 9 Sudeste 18 Sudeste 0 1002.2 -1.1 30
2019-08-09 17:00:00 35.8 9 Sudeste 19 Sudeste 0 1002.5 -1.1 38
2019-08-09 16:00:00 35.9 13 Sudeste 22 Sudeste 0 1002.8 -0.8 28
2019-08-09 15:00:00 35.6 12 Sudeste 22 Sudeste 0 1003.3 -0.5 30
2019-08-09 14:00:00 35 14 Sudeste 22 Sudeste 0 1003.6 0 38
2019-08-09 13:00:00 34.8 10 Sudeste 17 Sudeste 0 1003.6 0.1 37
2019-08-09 12:00:00 35.2 10 Sudeste 17 Sudeste 0 1003.8 0.5 31
2019-08-09 11:00:00 33.8 6 Sudeste 10 Este 0 1003.6 0.5 30
2019-08-09 10:00:00 31.1 3 Sudeste 6 Sudeste 0 1003.5 0.5 35
2019-08-09 09:00:00 27 0 Calma 10 Oeste 0 1003.3 0.5 43
2019-08-09 08:00:00 23.1 3 Noroeste 10 Oeste 0 1003.1 0.2 56
2019-08-09 07:00:00 23.1 4 Oeste 14 Noroeste 0 1003 -0.2 53
2019-08-09 06:00:00 22.7 4 Noroeste 9 Oeste 0 1002.8 -0.6 48
2019-08-09 05:00:00 23.1 4 Noroeste 9 Oeste 0 1002.9 -0.5 47
2019-08-09 04:00:00 23.9 5 Oeste 10 Oeste 0 1003.2 -0.5 46
2019-08-09 03:00:00 23.7 3 Oeste 9 Noroeste 0 1003.4 -0.2 49
2019-08-09 02:00:00 24.3 5 Oeste 8 Noroeste 0 1003.4 -0.3 60
2019-08-09 01:00:00 25.4 3 Noroeste 6 Norte 0 1003.7 0.5 74
2019-08-09 00:00:00 26.3 0 Calma 5 Sudoeste 0 1003.6 0.8 75
2019-08-08 23:00:00 27.3 5 Sudoeste 9 Sudoeste 0 1003.7 1 72
2019-08-08 22:00:00 28 5 Sudoeste 11 Sudoeste 0 1003.2 0.5 69
2019-08-08 21:00:00 29.2 5 Sudoeste 11 Sur 0 1002.8 0 53
2019-08-08 20:00:00 29.4 7 Sudeste 14 Sur 0 1002.7 -0.3 62
2019-08-08 19:00:00 31 7 Sur 14 Sudeste 0 1002.7 -0.5 60
2019-08-08 18:00:00 30.9 10 Sudeste 19 Sudeste 0 1002.8 -0.5 57
2019-08-08 17:00:00 31.7 10 Sudeste 22 Sudeste 0 1003 -0.8 58
2019-08-08 16:00:00 31.7 14 Sudeste 22 Sudeste 0 1003.2 -1.2 55
2019-08-08 15:00:00 31.9 12 Sudeste 19 Sudeste 0 1003.3 -1.2 59
2019-08-08 14:00:00 31.8 9 Sudeste 18 Sur 0 1003.8 -0.4 61
2019-08-08 13:00:00 30.2 9 Sudeste 18 Sudeste 0 1004.4 0.6 67
2019-08-08 12:00:00 30.5 8 Sudeste 15 Sudeste 0 1004.5 0.9 67
2019-08-08 11:00:00 30 7 Sur 14 Sudeste 0 1004.2 0.9 66
2019-08-08 10:00:00 28.2 6 Sudeste 10 Sudeste 0 1003.8 1 75
2019-08-08 09:00:00 26.3 2 Norte 5 Norte 0 1003.6 1.5 76
2019-08-08 08:00:00 24.4 2 Noroeste 8 Norte 0 1003.3 1.7 70
2019-08-08 07:00:00 25.6 6 Este 15 Nordeste 0 1002.8 1.1 82
2019-08-08 06:00:00 24.9 7 Nordeste 17 Nordeste 0 1002.1 0 57
2019-08-08 05:00:00 24.4 3 Nordeste 6 Norte 0 1001.6 -0.6 44
2019-08-08 04:00:00 24.9 4 Noroeste 8 Noroeste 0 1001.7 -0.6 40
2019-08-08 03:00:00 25.5 4 Noroeste 9 Noroeste 0 1002.1 -0.9 36
2019-08-08 02:00:00 25.5 4 Oeste 12 Oeste 0 1002.2 -0.8 39
2019-08-08 01:00:00 26 4 Noroeste 6 Noroeste 0 1002.3 0.1 45
2019-08-08 00:00:00 27.4 3 Oeste 7 Noroeste 0 1003 1.5 43
2019-08-07 23:00:00 28.2 4 Noroeste 8 Oeste 0 1003 2.1 59
2019-08-07 22:00:00 28.9 0 Calma 7 Noroeste 0 1002.2 1.3 52
2019-08-07 21:00:00 30.1 5 Norte 8 Nordeste 0 1001.5 0.4 54
2019-08-07 20:00:00 30.6 5 Nordeste 10 Norte 0 1000.9 -0.3 53
2019-08-07 19:00:00 30.5 4 Nordeste 11 Este 0 1000.9 -0.7 49
2019-08-07 18:00:00 30.6 7 Este 17 Nordeste 0 1001.1 -0.5 60
2019-08-07 17:00:00 30.8 9 Este 22 Este 0 1001.2 -0.2 57
2019-08-07 16:00:00 31.2 11 Este 23 Este 0 1001.6 0.2 59
2019-08-07 15:00:00 31 15 Nordeste 27 Nordeste 0 1001.6 0 61
2019-08-07 14:00:00 30.9 14 Este 24 Este 0 1001.4 0.4 56
2019-08-07 13:00:00 31.6 12 Este 26 Nordeste 0 1001.4 0.9 54
2019-08-07 12:00:00 31.5 13 Este 22 Nordeste 0 1001.6 1.5 53
2019-08-07 11:00:00 34.1 4 Sudeste 11 Oeste 0 1001 0.9 28
2019-08-07 10:00:00 27.9 0 Calma 6 Noroeste 0 1000.5 0.8 55
2019-08-07 09:00:00 25.1 2 Sudoeste 6 Oeste 0 1000.1 0.4 68
2019-08-07 08:00:00 22.8 4 Oeste 7 Noroeste 0 1000.1 0.2 80
2019-08-07 07:00:00 23.3 4 Oeste 5 Oeste 0 999.7 0.1 84
2019-08-07 06:00:00 24 3 Oeste 6 Noroeste 0 999.7 0 85
2019-08-07 05:00:00 24.6 5 Sudoeste 13 Sudoeste 0 999.9 -0.6 86
2019-08-07 04:00:00 24.9 5 Sudoeste 13 Sur 0 999.6 -2.2 87
2019-08-07 03:00:00 25.4 4 Sudoeste 9 Sur 0 999.7 -2.1 87
2019-08-07 02:00:00 25.5 4 Norte 10 Norte 0 1000.5 -1.3 87
2019-08-07 01:00:00 25.9 3 Sudoeste 8 Sudeste 0 1001.8 0.7 85
2019-08-07 00:00:00 26.2 2 Sudoeste 11 Sur 0 1001.8 1.3 85
2019-08-06 23:00:00 26.6 3 Sur 10 Sur 0 1001.8 1.8 83
2019-08-06 22:00:00 26.8 5 Sur 8 Sudeste 0 1001.1 1 81
2019-08-06 21:00:00 27.4 5 Sudeste 12 Sudeste 0 1000.5 -0.1 77
2019-08-06 20:00:00 28.7 6 Sudeste 13 Sur 0 1000 -1.2 73
2019-08-06 19:00:00 29.9 8 Sudeste 14 Sudeste 0 1000.1 -1.9 65
2019-08-06 18:00:00 31.3 8 Sudeste 19 Sudeste 0 1000.6 -1.8 59
2019-08-06 17:00:00 30.9 7 Sudeste 17 Sudeste 0 1001.2 -1.8 61
2019-08-06 16:00:00 31.3 10 Sur 25 Sur 0 1002 -1.6 60
2019-08-06 15:00:00 30.5 11 Sudeste 19 Este 0 1002.4 -1.4 66
2019-08-06 14:00:00 30.4 9 Sudeste 22 Sudeste 0 1003 -1 66
2019-08-06 13:00:00 30.9 12 Sur 22 Sur 0 1003.6 -0.4 64
2019-08-06 12:00:00 30.8 9 Sudeste 19 Sudeste 0 1003.8 0 63
2019-08-06 11:00:00 29.6 4 Sudoeste 13 Sur 0 1004 1 65
2019-08-06 10:00:00 27.6 4 Sudoeste 10 Sur 0 1004 1 71
2019-08-06 09:00:00 25.9 4 Sudoeste 8 Norte 0 1003.8 1 77
2019-08-06 08:00:00 24 4 Noroeste 6 Noroeste 0 1003 0.2 87
2019-08-06 07:00:00 24 3 Oeste 11 Sur 0 1003 -0.2 87
2019-08-06 06:00:00 24.4 4 Sur 11 Sudoeste 0 1002.8 -0.9 87
2019-08-06 05:00:00 24.2 4 Oeste 10 Noroeste 0 1002.8 -1 83
2019-08-06 04:00:00 24.7 5 Noroeste 10 Noroeste 0 1003.2 -1 86
2019-08-06 03:00:00 25.2 4 Oeste 9 Oeste 0 1003.7 -0.7 85
2019-08-06 02:00:00 25.3 3 Oeste 5 Sudoeste 0 1003.8 -0.4 85
2019-08-06 01:00:00 25.7 4 Oeste 7 Sudoeste 0 1004.2 0.6 84
2019-08-06 00:00:00 26.2 5 Sudoeste 8 Sudoeste 0 1004.4 2 81
2019-08-05 23:00:00 26.1 3 Sudeste 12 Sudeste 0 1004.2 1.7 81
2019-08-05 22:00:00 26.4 6 Sur 10 Sudeste 0 1003.6 0.9 81
2019-08-05 21:00:00 26.8 5 Nordeste 14 Sudeste 0 1002.4 -0.6 76
2019-08-05 20:00:00 27.5 6 Este 13 Sur 0 1002.5 -0.8 72
2019-08-05 19:00:00 28.7 7 Sudeste 21 Sudeste 0 1002.7 -1 67
2019-08-05 18:00:00 30 9 Este 19 Este 0 1003 -1.1 62
2019-08-05 17:00:00 30.5 10 Sudeste 22 Sudeste 0 1003.3 -1.3 60
2019-08-05 16:00:00 30.7 11 Sudeste 19 Sudeste 0 1003.7 -1.4 61
2019-08-05 15:00:00 30.5 11 Sudeste 23 Sudeste 0 1004.1 -1.4 61
2019-08-05 14:00:00 30.9 11 Sudeste 19 Sudeste 0 1004.6 -0.9 61
2019-08-05 13:00:00 30.6 7 Sudeste 18 Sudeste 0 1005.1 -0.4 61
2019-08-05 12:00:00 29 9 Sudeste 15 Sudeste 0 1005.5 -0.2 68
2019-08-05 11:00:00 27.8 7 Sur 12 Sur 0 1005.5 0.3 72
2019-08-05 10:00:00 26.8 4 Nordeste 10 Nordeste 0 1005.5 1.1 75
2019-08-05 09:00:00 25.7 5 Norte 8 Norte 0 1005.7 1.6 81
2019-08-05 08:00:00 24 4 Norte 7 Nordeste 0 1005.2 1.3 88
2019-08-05 07:00:00 23.2 0 Calma 7 Norte 0 1004.4 0.2 86
2019-08-05 06:00:00 23.5 2 Norte 11 Nordeste 0 1004.1 -0.5 84
2019-08-05 05:00:00 23.7 8 Nordeste 10 Nordeste 0 1003.9 -1.4 87
2019-08-05 04:00:00 24.1 3 Oeste 11 Oeste 0 1004.2 -1.6 85
2019-08-05 03:00:00 24.7 3 Oeste 6 Sudoeste 0 1004.6 -0.9 87
2019-08-05 02:00:00 25.1 3 Oeste 8 Sudoeste 0 1005.3 0.2 86
2019-08-05 01:00:00 25.5 5 Sudoeste 9 Sudoeste 0 1005.8 1.4 84
2019-08-05 00:00:00 25.8 6 Sudoeste 11 Sudoeste 0 1005.5 1.8 82
2019-08-04 23:00:00 25.9 3 Sudeste 6 Sudoeste 0 1005.1 1.8 81
2019-08-04 22:00:00 26.1 3 Sudeste 10 Sudeste 0 1004.4 1.1 80
2019-08-04 21:00:00 26.6 6 Sudeste 14 Sudeste 0 1003.7 0.3 77
2019-08-04 20:00:00 27.9 7 Sudeste 14 Sur 0 1003.3 0 72
2019-08-04 19:00:00 29.1 8 Sudeste 19 Sudeste 0 1003.3 -0.5 66
2019-08-04 18:00:00 30 12 Sudeste 21 Sudeste 0 1003.4 -1 60
2019-08-04 17:00:00 31.1 11 Sudeste 20 Sudeste 0 1003.3 -1.7 54
2019-08-04 16:00:00 31 8 Sudeste 15 Sur 0 1003.8 -1.9 53
2019-08-04 15:00:00 31 9 Sudeste 18 Sudeste 0 1004.4 -1.5 53
2019-08-04 14:00:00 30.5 9 Sudeste 18 Sudeste 0 1005 -1 52
2019-08-04 13:00:00 29.9 11 Sudeste 18 Sudeste 0 1005.7 -0.1 47
2019-08-04 12:00:00 29.7 7 Sudeste 15 Sudeste 0 1005.9 1.2 49
2019-08-04 11:00:00 28.3 5 Este 13 Sudeste 0 1006 2.1 50
2019-08-04 10:00:00 27 7 Sudeste 14 Este 0 1005.8 2.3 63
2019-08-04 09:00:00 25.5 8 Este 14 Sudeste 0 1004.7 1.7 67
2019-08-04 08:00:00 22.5 6 Noroeste 8 Norte 0 1003.9 0.3 68
2019-08-04 07:00:00 22.4 6 Nordeste 10 Nordeste 0 1003.5 -0.4 70
2019-08-04 06:00:00 22.3 4 Norte 17 Noroeste 0 1003 -1.3 68
2019-08-04 05:00:00 22.3 4 Oeste 11 Noroeste 0 1003.6 -1.4 78
2019-08-04 04:00:00 22.4 4 Oeste 8 Oeste 0 1003.9 -1.4 77
2019-08-04 03:00:00 23.2 4 Noroeste 10 Noroeste 0 1004.3 -1.1 78
2019-08-04 02:00:00 23.9 4 Oeste 8 Noroeste 0 1005 0.2 81
2019-08-04 01:00:00 24.2 3 Noroeste 7 Sudoeste 0 1005.3 1.3 80
2019-08-04 00:00:00 24.7 3 Sudeste 8 Norte 0 1005.4 2 78
2019-08-03 23:00:00 24.9 4 Este 8 Este 0 1004.8 1.1 80
2019-08-03 22:00:00 25.1 3 Nordeste 11 Nordeste 0 1004 0.5 78
2019-08-03 21:00:00 25.8 8 Este 13 Este 0 1003.4 -0.5 69
2019-08-03 20:00:00 27.2 7 Sudeste 17 Sudeste 0 1003.7 -0.8 67
2019-08-03 19:00:00 28.8 9 Sudeste 17 Sudeste 0 1003.5 -1.4 61
2019-08-03 18:00:00 29.3 9 Sudeste 21 Sudeste 0 1003.9 -2 55
2019-08-03 17:00:00 30 10 Sudeste 19 Sur 0 1004.5 -1.4 60
2019-08-03 16:00:00 29.6 9 Este 24 Sur 0 1004.9 -1 55
2019-08-03 15:00:00 30.1 10 Sudeste 23 Sudeste 0 1005.9 -0.3 56
2019-08-03 14:00:00 30.5 14 Sudeste 22 Sudeste 0 1005.9 -0.3 50
2019-08-03 13:00:00 30 9 Sudeste 20 Sudeste 0 1005.9 -0.4 50
2019-08-03 12:00:00 29.8 10 Sudeste 18 Sudeste 0 1006.2 0.4 50
2019-08-03 11:00:00 29.3 7 Este 14 Nordeste 0 1006.2 0.8 43
2019-08-03 10:00:00 27.6 4 Oeste 7 Sur 0 1006.3 1.1 65
2019-08-03 09:00:00 25.5 3 Oeste 7 Oeste 0 1005.8 1.1 74
2019-08-03 08:00:00 22.9 3 Noroeste 5 Noroeste 0 1005.4 0.6 82
2019-08-03 07:00:00 22.7 3 Oeste 8 Norte 0 1005.2 0.4 84
2019-08-03 06:00:00 23.2 5 Norte 7 Nordeste 0 1004.7 -0.6 82
2019-08-03 05:00:00 23.6 4 Nordeste 10 Nordeste 0 1004.8 -1 82
2019-08-03 04:00:00 23.7 3 Norte 6 Noroeste 0 1004.8 -1.3 81
2019-08-03 03:00:00 24 2 Oeste 5 Noroeste 0 1005.3 -1 81
2019-08-03 02:00:00 24.5 3 Norte 6 Norte 0 1005.8 -0.2 79
2019-08-03 01:00:00 24.9 3 Norte 8 Sudeste 0 1006.1 1.3 78
2019-08-03 00:00:00 25.1 4 Este 12 Sudeste 0 1006.3 2.5 79
2019-08-02 23:00:00 25.4 6 Este 18 Este 0 1006 2.9 77
2019-08-02 22:00:00 25.6 8 Este 19 Este 0 1004.8 1.6 75
2019-08-02 21:00:00 26.3 8 Sudeste 14 Sudeste 0 1003.8 -0.5 75
2019-08-02 20:00:00 27.7 9 Sudeste 16 Sudeste 0 1003.1 -1.9 69
2019-08-02 19:00:00 29.8 8 Sudeste 12 Sur 0 1003.2 -2.1 62
2019-08-02 18:00:00 28.6 7 Este 30 Sudeste 0 1004.3 -1.4 65
2019-08-02 17:00:00 29.4 14 Sur 30 Sur 0 1005 -0.8 64
2019-08-02 16:00:00 30.5 12 Sur 28 Sur 0 1005.3 -0.7 59
2019-08-02 15:00:00 30.3 17 Sur 28 Sur 0 1005.7 0 58
2019-08-02 14:00:00 31.4 13 Sur 23 Sudoeste 0 1005.8 0.5 55
2019-08-02 13:00:00 30.2 11 Sur 21 Sur 0 1006 1 56
2019-08-02 12:00:00 29.2 10 Sur 19 Sudoeste 0 1005.7 1 60
2019-08-02 11:00:00 27.7 6 Sur 14 Sur 0 1005.3 1.2 66
2019-08-02 10:00:00 25.5 6 Sur 13 Sur 0 1005 1.7 76
2019-08-02 09:00:00 24.6 7 Sur 14 Sudoeste 0 1004.7 1.7 82
2019-08-02 08:00:00 22.8 2 Nordeste 7 Nordeste 0 1004.1 0.9 78
2019-08-02 07:00:00 22.3 3 Este 13 Nordeste 0 1003.3 0.2 78
2019-08-02 06:00:00 22.4 5 Norte 9 Norte 0 1003 -0.5 83
2019-08-02 05:00:00 22.8 4 Noroeste 7 Oeste 0 1003.2 -1 83
2019-08-02 04:00:00 23.2 3 Sudoeste 7 Noroeste 0 1003.1 -1.3 82
2019-08-02 03:00:00 23.6 4 Noroeste 10 Noroeste 0 1003.5 -1 82
2019-08-02 02:00:00 24 3 Noroeste 8 Oeste 0 1004.2 0 82
2019-08-02 01:00:00 24.4 4 Oeste 12 Sudoeste 0 1004.4 1 81
2019-08-02 00:00:00 25 7 Sudoeste 13 Sudoeste 0 1004.5 1.9 78
2019-08-01 23:00:00 25.3 5 Sudoeste 11 Sur 0 1004.2 2.5 77
2019-08-01 22:00:00 25.5 7 Sur 13 Sudeste 0 1003.4 2.5 76
2019-08-01 21:00:00 26 5 Sudeste 21 Sudeste 0 1002.6 1.3 74
2019-08-01 20:00:00 27.3 9 Sudeste 16 Sudeste 0 1001.7 0 69
2019-08-01 19:00:00 28.6 8 Este 18 Sudeste 0 1000.9 -0.9 61
2019-08-01 18:00:00 29 11 Sudeste 19 Sudeste 0 1001.3 -1 59
2019-08-01 17:00:00 30 9 Sudeste 18 Sudeste 0 1001.7 -1.9 56
2019-08-01 16:00:00 28.5 6 Este 23 Nordeste 0 1001.8 -1.4 58
2019-08-01 15:00:00 28 9 Este 18 Este 0 1002.3 -1.1 59
2019-08-01 14:00:00 28.4 10 Sur 23 Sur 0 1003.6 0.6 60
2019-08-01 13:00:00 29 13 Sudeste 26 Sudeste 0 1003.2 0 50
2019-08-01 12:00:00 30 10 Sudeste 20 Sudeste 0 1003.4 0 43
2019-08-01 11:00:00 29.9 5 Sudoeste 11 Sudoeste 0 1003 -0.4 40
2019-08-01 10:00:00 27.4 4 Nordeste 9 Noroeste 0 1003.2 0 48
2019-08-01 09:00:00 24.3 6 Noroeste 11 Oeste 0 1003.4 0.4 59
2019-08-01 08:00:00 21.6 4 Oeste 10 Oeste 0 1003.4 0.5 67
2019-08-01 07:00:00 21 4 Oeste 10 Noroeste 0 1003.2 -0.3 70
2019-08-01 06:00:00 21.4 4 Noroeste 6 Noroeste 0 1003 -0.5 67
2019-08-01 05:00:00 21.8 3 Oeste 13 Noroeste 0 1002.9 -1.1 65
2019-08-01 04:00:00 22.3 2 Oeste 13 Oeste 0 1003.5 -0.3 65
2019-08-01 03:00:00 23 5 Noroeste 15 Noroeste 0 1003.5 -0.8 67
2019-08-01 02:00:00 23.2 4 Noroeste 8 Sudeste 0 1004 -0.9 65
2019-08-01 01:00:00 23.9 3 Sudeste 15 Norte 0 1003.8 -0.8 61
2019-08-01 00:00:00 24.9 6 Nordeste 15 Este 0 1004.3 0.4 71
2019-07-31 23:00:00 25.5 10 Nordeste 26 Este 0 1004.9 1.9 70
2019-07-31 22:00:00 25.9 9 Este 23 Este 0 1004.6 1.9 63
2019-07-31 21:00:00 26.4 12 Este 34 Nordeste 0 1003.9 -0.1 62
2019-07-31 20:00:00 27.4 18 Este 35 Nordeste 0 1003 -2.2 55
2019-07-31 19:00:00 27.6 20 Este 41 Este 0 1002.7 -2.7 56
2019-07-31 18:00:00 27.6 17 Este 44 Nordeste 0 1004 -1.7 54
2019-07-31 17:00:00 27.6 21 Nordeste 45 Este 0 1005.2 -1.7 54
2019-07-31 16:00:00 28.4 23 Nordeste 45 Este 0 1005.4 -0.9 53
2019-07-31 15:00:00 27 18 Este 40 Este 0 1005.7 -1.3 65
2019-07-31 14:00:00 26.5 12 Este 35 Nordeste 0 1006.9 -0.2 68
2019-07-31 13:00:00 26.6 21 Este 40 Este 0 1006.3 0.8 68
2019-07-31 12:00:00 27.9 18 Este 36 Este 0 1007 0.9 67
2019-07-31 11:00:00 27.2 16 Este 38 Nordeste 0 1007.1 1.8 70
2019-07-31 10:00:00 26.1 20 Este 38 Nordeste 0 1005.5 0.4 68
2019-07-31 09:00:00 24.2 12 Este 24 Este 0 1006.1 0.6 74
2019-07-31 08:00:00 23 4 Noroeste 15 Nordeste 0 1005.3 -0.3 64
2019-07-31 07:00:00 22.3 5 Norte 16 Nordeste 0 1005.1 -0.7 66
2019-07-31 06:00:00 22.4 7 Noroeste 17 Noroeste 0 1005.5 -0.7 74
2019-07-31 05:00:00 22 5 Norte 10 Nordeste 0 1005.6 0.3 78
2019-07-31 04:00:00 22.4 4 Norte 8 Norte 0 1005.8 0.2 77
2019-07-31 03:00:00 23.2 3 Noroeste 11 Nordeste 0 1006.2 0.7 76
2019-07-31 02:00:00 24.5 11 Nordeste 21 Este 0 1005.3 0.3 73
2019-07-31 01:00:00 24.6 11 Este 24 Este 0 1005.6 1.1 76
2019-07-31 00:00:00 24.7 9 Este 17 Este 0 1005.5 1.5 78
2019-07-30 23:00:00 25 6 Nordeste 13 Nordeste 0 1005 1.2 81
2019-07-30 22:00:00 25 6 Nordeste 17 Nordeste 0 1004.5 0.8 79
2019-07-30 21:00:00 25.5 9 Este 18 Nordeste 0 1004 -0.1 78
2019-07-30 20:00:00 26.1 10 Este 22 Este 0 1003.8 -0.5 76
2019-07-30 19:00:00 26.4 10 Este 20 Este 0 1003.7 -0.9 74
2019-07-30 18:00:00 26.7 9 Este 18 Sudeste 0 1004.1 -0.5 73
2019-07-30 17:00:00 26.9 9 Sudeste 22 Sudeste 0 1004.3 -0.5 72
2019-07-30 16:00:00 27.1 11 Sudeste 22 Sudeste 0 1004.6 0.1 71
2019-07-30 15:00:00 28.3 12 Sudeste 27 Sudeste 0 1004.6 0.2 67
2019-07-30 14:00:00 28.5 13 Sudeste 27 Sudeste 0 1004.8 0.7 66
2019-07-30 13:00:00 30 10 Sudeste 23 Sudeste 0 1004.5 0.7 61
2019-07-30 12:00:00 29.2 9 Sudeste 21 Este 0 1004.4 1 61
2019-07-30 11:00:00 28.5 9 Este 16 Este 0 1004.1 1.2 60
2019-07-30 10:00:00 27.5 7 Este 13 Sudeste 0 1003.8 1.3 60
2019-07-30 09:00:00 25 7 Nordeste 10 Norte 0 1003.4 1.1 68
2019-07-30 08:00:00 22.5 5 Norte 8 Nordeste 0 1002.9 1.1 82
2019-07-30 07:00:00 22 5 Norte 9 Norte 0 1002.5 0.8 82
2019-07-30 06:00:00 22.3 2 Norte 9 Sudoeste 0 1002.3 0.2 87
2019-07-30 05:00:00 22 3 Oeste 5 Oeste 0 1001.8 -0.5 79
2019-07-30 04:00:00 22.3 3 Noroeste 6 Oeste 0 1001.7 -1 80
2019-07-30 03:00:00 23.2 4 Sudoeste 7 Sudoeste 0 1002.1 -0.5 83
2019-07-30 02:00:00 23.7 4 Sudoeste 10 Sudoeste 0 1002.3 -0.1 82
2019-07-30 01:00:00 24.1 5 Sudoeste 10 Sudoeste 0 1002.7 0.8 81
2019-07-30 00:00:00 24.5 4 Sudoeste 7 Sur 0 1002.6 1.3 77
2019-07-29 23:00:00 24.6 3 Sudeste 8 Sudeste 0 1002.4 1.3 75
2019-07-29 22:00:00 24.9 4 Sudeste 13 Sur 0 1001.9 1.1 73
2019-07-29 21:00:00 25.8 6 Sudeste 16 Sudeste 0 1001.3 0.2 68
2019-07-29 20:00:00 27.2 9 Sudeste 17 Este 0 1001.1 -0.4 58
2019-07-29 19:00:00 28.6 9 Sudeste 26 Sudeste 0 1000.8 -1 50
2019-07-29 18:00:00 29.9 10 Sur 25 Sudeste 0 1001.1 -0.8 48
2019-07-29 17:00:00 29.8 13 Sur 28 Sudoeste 0 1001.5 -0.5 51
2019-07-29 16:00:00 30.3 12 Sudeste 27 Sudeste 0 1001.8 -0.5 49
2019-07-29 15:00:00 29.1 15 Sudeste 30 Sudeste 0 1001.9 -0.3 60
2019-07-29 14:00:00 30.7 14 Sur 22 Sudeste 0 1002 -0.1 47
2019-07-29 13:00:00 30.7 12 Sudeste 23 Sur 0 1002.3 0.2 48
2019-07-29 12:00:00 30.6 9 Sur 17 Sudeste 0 1002.2 -0.2 51
2019-07-29 11:00:00 29.5 5 Sudoeste 12 Sudeste 0 1002.1 -0.1 49
2019-07-29 10:00:00 26.9 5 Noroeste 10 Oeste 0 1002.1 0.4 62
2019-07-29 09:00:00 24.5 5 Noroeste 11 Noroeste 0 1002.4 1.3 76
2019-07-29 08:00:00 21.7 4 Noroeste 6 Noroeste 0 1002.2 1.2 77
2019-07-29 07:00:00 21.3 2 Noroeste 8 Norte 0 1001.7 0.6 76
2019-07-29 06:00:00 21.6 2 Noroeste 4 Noroeste 0 1001.1 -0.1 77
2019-07-29 05:00:00 21.9 2 Noroeste 5 Noroeste 0 1001 -0.4 75
2019-07-29 04:00:00 22.2 3 Oeste 6 Noroeste 0 1001.1 -0.8 72
2019-07-29 03:00:00 22.6 4 Oeste 6 Oeste 0 1001.2 -0.7 74
2019-07-29 02:00:00 23.6 3 Oeste 6 Oeste 0 1001.4 -0.4 75
2019-07-29 01:00:00 24.3 3 Oeste 6 Sudoeste 0 1001.9 0.7 79
2019-07-29 00:00:00 24.7 3 Noroeste 5 Sudeste 0 1001.9 1 76
2019-07-28 23:00:00 25 4 Sudeste 12 Este 0 1001.8 1.3 75
2019-07-28 22:00:00 25.3 8 Nordeste 13 Nordeste 0 1001.2 0.9 73
2019-07-28 21:00:00 25.8 9 Este 16 Nordeste 0 1000.9 0.4 69
2019-07-28 20:00:00 26.4 10 Este 21 Nordeste 0 1000.5 -0.3 66
2019-07-28 19:00:00 28.2 7 Sudeste 21 Sudeste 0 1000.3 -1 61
2019-07-28 18:00:00 27.7 13 Sudeste 23 Sudeste 0 1000.5 -0.8 61
2019-07-28 17:00:00 28.3 12 Este 24 Este 0 1000.8 -0.4 58
2019-07-28 16:00:00 28.6 12 Este 36 Sudeste 0 1001.3 0.1 57
2019-07-28 15:00:00 29.6 17 Sudeste 34 Sudeste 0 1001.3 0.1 55
2019-07-28 14:00:00 29.9 15 Sudeste 33 Sudeste 0 1001.2 0 54
2019-07-28 13:00:00 29.2 16 Sudeste 31 Sudeste 0 1001.2 0.2 56
2019-07-28 12:00:00 29.3 11 Sur 30 Sudeste 0 1001.2 0.4 55
2019-07-28 11:00:00 28.9 12 Sur 23 Sur 0 1001.2 0.9 55
2019-07-28 10:00:00 28.1 10 Sudeste 17 Sudeste 0 1001 1.3 57
2019-07-28 09:00:00 27.3 3 Sur 5 Sudeste 0 1000.8 1.9 56
2019-07-28 08:00:00 24.1 3 Noroeste 5 Sudoeste 0 1000.3 1.7 49
2019-07-28 07:00:00 24.1 4 Nordeste 8 Norte 0 999.7 1.2 52
2019-07-28 06:00:00 25 2 Sur 10 Nordeste 0 998.9 0.4 67
2019-07-28 05:00:00 25.7 6 Norte 21 Norte 0 998.6 0.3 57
2019-07-28 04:00:00 26 7 Norte 27 Noroeste 0 998.5 0.4 41
2019-07-28 03:00:00 26.8 9 Norte 30 Norte 0 998.5 0.7 39
2019-07-28 02:00:00 27.7 13 Noroeste 32 Noroeste 0 998.3 1.3 36
2019-07-28 01:00:00 28.2 13 Oeste 33 Noroeste 0 998.1 2.2 37
2019-07-28 00:00:00 29.3 15 Oeste 36 Oeste 0 997.8 3 35
2019-07-27 23:00:00 30.5 15 Noroeste 36 Noroeste 0 997 2.8 33
2019-07-26 12:00:00 29.5 9 Sudeste 18 Sudeste 0 1001.8 -0.6 59
2019-07-26 11:00:00 28.7 10 Sudeste 17 Sudeste 0 1002.1 0.1 62
2019-07-26 10:00:00 28.1 5 Sudoeste 10 Sudoeste 0 1002.2 0 61
2019-07-26 09:00:00 25.7 2 Norte 9 Norte 0 1002.4 0.4 68
2019-07-26 08:00:00 22.9 6 Nordeste 9 Nordeste 0 1002 0.1 69
2019-07-26 07:00:00 22.1 3 Norte 6 Norte 0 1002.2 0.3 72
2019-07-26 06:00:00 23 5 Sur 12 Sur 0 1002 -0.6 82
2019-07-26 05:00:00 21.8 2 Oeste 5 Noroeste 0 1001.9 -1.5 54
2019-07-26 04:00:00 22.7 3 Noroeste 6 Noroeste 0 1001.9 -1.8 54
2019-07-26 03:00:00 23.5 3 Noroeste 8 Sudoeste 0 1002.6 -1.6 69
2019-07-26 02:00:00 24.7 5 Sudoeste 10 Sudoeste 0 1003.4 -0.9 83
2019-07-26 01:00:00 25 0 Calma 6 Norte 0 1003.7 0 77
2019-07-26 00:00:00 25.5 3 Norte 8 Este 0 1004.2 0.8 82